Logo AVAMET
Benvolgut visitant, si us plau, ingressa Recuperar contrasenya
AVAMET paisatges

Benifairó de la Valldigna

Dades diàries. Acumulats / Últims 30 dies disponibles

Data Temperatura (°C) Humitat rel. (%) Pressió rel. (hPa) Vent (km/h) Precipitació
Mínima Mitjana Màxima Amplitud
tèrmica
Mínima Mitjana Màxima Mínima Mitjana Màxima Predom. Mitjana Ràfega
màxima
Total
(mm)
Índex-n
Mínima Mitjana Màxima Mínima Mitjana Màxima n
0 a 1
P0 max
mm 5'
Dades mensuals acumulades fins l'últim dia disponible
11/2020 6,6 11,8 16,7 15,8 17,6 20,6 24,7 18,1 48 80 97 1.012 1.021 1.029   2,6 46,3 145,4
Dades anuals acumulades fins l'últim dia disponible
2020 3,7 15,1 24,6 19,7 10,7 25,0 37,2 33,5 19 71 97 988 1.015 1.032   4,9 72,2 752,6
Últims 30 dies disponibles
25-11-2020 7,2     11,8     18,5 11,3 63 78 93 1.012 1.015 1.017 NE 2,1 24,1 0,0
24-11-2020 6,6     11,5     17,7 11,1 63 78 93 1.017 1.021 1.024 N 1,5 18,5 0,2
23-11-2020 6,8     11,3     17,6 10,8 68 81 93 1.024 1.025 1.027 N 1,9 20,4 0,0
22-11-2020 7,0     11,4     18,8 11,8 52 72 92 1.024 1.026 1.028 NO 2,0 18,5 0,0
21-11-2020 7,7     11,9     17,8 10,1 63 77 91 1.025 1.026 1.028 N 1,7 20,4 0,0
20-11-2020 9,4     13,7     18,8 9,4 54 74 93 1.023 1.025 1.027 NNE 2,4 18,5 0,0
19-11-2020 13,0     16,7     23,3 10,3 58 77 95 1.026 1.027 1.029 ONO 1,2 11,1 0,0
18-11-2020 13,2     16,6     21,3 8,1 72 83 94 1.023 1.025 1.026 NNO 2,1 22,2 0,0
17-11-2020 12,6     16,6     21,6 9,0 70 83 95 1.022 1.024 1.025 NE 2,1 20,4 0,0
16-11-2020 14,9     20,2     24,3 9,4 58 74 90 1.016 1.019 1.023 N 3,6 22,2 0,0
15-11-2020 15,4     19,0     24,5 9,1 59 77 94 1.017 1.018 1.019 O 4,4 27,8 0,0
14-11-2020 12,3     15,5     19,2 6,9 81 89 96 1.018 1.019 1.020 ONO 0,3 11,1 0,2
13-11-2020 13,1     16,0     19,9 6,8 74 84 94 1.018 1.019 1.020 SO 0,9 14,8 0,0
12-11-2020 10,6     14,7     20,2 9,6 64 79 94 1.019 1.020 1.022 NNE 2,2 18,5 0,0
11-11-2020 12,3     18,8     20,9 8,6 68 80 92 1.020 1.023 1.023 NE 1,9 20,4 0,0
10-11-2020 11,5     17,6     20,9 9,4 68 81 93 1.021 1.023 1.024 NNO 0,3 18,5 0,2
09-11-2020 11,1     15,9     23,1 12,0 55 74 93 1.018 1.019 1.021 NNO 1,6 16,6 0,2
08-11-2020 11,2     15,6     22,7 11,5 54 73 91 1.019 1.020 1.022 NNE 2,0 18,5 0,0
07-11-2020 12,7     16,2     19,8 7,1 68 82 96 1.012 1.019 1.022 SSE 6,0 44,4 3,9
06-11-2020 16,7     18,7     20,1 3,4 93 95 97 1.015 1.018 1.020 NE 5,5 27,8 0,9
05-11-2020 14,2     16,8     18,4 4,2 89 93 96 1.017 1.019 1.020 NE 8,2 46,3 118,6
04-11-2020 13,7     15,3     18,1 4,4 78 86 94 1.017 1.018 1.021 NE 3,6 31,4 21,2 0,66 1,90
03-11-2020 16,1     18,0     21,3 5,2 74 82 90 1.020 1.021 1.023 NE 2,3 18,5 0,0
02-11-2020 11,9     17,4     22,7 10,8 63 77 91 1.017 1.019 1.020 NE 2,6 20,4 0,0
01-11-2020 12,8     18,0     24,7 11,9 48 71 93 1.018 1.020 1.022 NNE 2,0 20,4 0,0
31-10-2020 12,1     17,9     23,2 11,1 63 78 93 1.019 1.021 1.023 S 2,7 20,4 0,0
30-10-2020 11,7     17,3     22,9 11,2 63 78 93 1.021 1.023 1.024 O 2,9 24,1 0,0
29-10-2020 12,1     17,2     23,5 11,4 55 73 90 1.021 1.023 1.025 NE 2,7 24,1 0,0
28-10-2020 14,7     18,2     24,7 10,0 42 62 81 1.016 1.018 1.021 NO 3,6 20,4 0,0
27-10-2020 12,2     16,8     21,7 9,5 34 47 60 1.014 1.016 1.018 O 7,4 31,4 0,0
Últims 13 mesos disponibles
11/2020 11,1 13,2 16,7 16,9 18,1 21,2 24,7 13,6 71 81 95 1.018 1.020 1.023 NE 3,4 46,3 145,0
10/2020 7,7 13,7 18,9 18,8 18,4 24,4 32,6 24,9 47 64 88 995 1.014 1.023 O 5,2 66,6 13,9
09/2020 12,4 18,5 21,9 23,4 24,3 28,5 31,8 19,4 40 68 81 1.008 1.014 1.020 NE 4,5 42,5 15,8
08/2020 15,6 22,3 24,6 27,3 25,9 32,4 37,2 21,6 53 70 82 1.001 1.010 1.016 NE 5,0 33,3 5,0
07/2020 18,4 21,8 24,0 26,5 27,9 31,2 36,3 17,9 59 72 82 1.008 1.013 1.017 NE 4,9 33,3 9,9
06/2020 14,9 18,7 22,9 23,8 21,4 29,0 33,5 18,6 40 69 84 1.002 1.011 1.018 NE 5,8 42,5 56,1
05/2020 12,6 16,0 19,8 21,1 20,6 26,4 34,0 21,4 47 68 82 1.003 1.014 1.024 NE 5,6 42,5 35,6
04/2020 8,1 12,3 18,5 15,9 15,7 20,1 26,7 18,6 50 76 95 1.003 1.013 1.023 NE 4,1 37,0 55,8
03/2020 4,9 10,5 17,1 14,3 10,7 18,7 25,5 20,6 42 71 93 1.004 1.014 1.024 NE 5,7 72,2 133,6
02/2020 5,7 9,3 13,8 14,8 14,3 21,0 26,5 20,8 48 69 87 1.011 1.023 1.030 O 3,6 35,1 8,2
01/2020 3,7 7,7 13,3 10,9 12,4 14,9 18,6 14,9 56 79 94 1.012 1.022 1.029 4,1 72,2 273,3
12/2019 5,1 10,2 18,4 14,0 12,9 18,8 26,0 20,9 51 72 92 999 1.016 1.030 W 6,2 64,8 347,5
11/2019 4,0 11,7 21,4 15,6 15,6 20,0 27,4 23,4 48 60 79 996 1.008 1.016 W 8,6 48,1 14,0
Tots els anys disponibles
2019 -0,9 13,7 26,7 18,6 12,9 24,0 41,2 42,1 36 68 95 992 1.014 1.031 NE 5,3 64,8 880,1
2018 1,6 9,1 20,6 18,5 23,5 30,0 38,1 36,5 72 75 81 1.012 1.015 1.022 W 5,0 66,6 1.166,8
2017 -0,5 13,0 27,3 17,6 9,2 22,8 37,4 37,9 N 3,1 64,8 448,4
2016 3,7 15,2 25,6 19,7 12,9 24,7 40,3 36,6 4,5 64,8 803,4
2009 -0,7 12,8 24,6 17,4 5,2 22,8 38,4 39,1 4,0 75,6 1.106,5
2008 735,6
Temperatura (°C)
Humitat relativa (%)
Velocitat del vent i ràfega màxima (km/h)
Direcció del vent (°)
Pressió (hPa)
Precipitació (mm)
Nota sobre les dades: s'avisa a l'usuari de la provisionalitat i no oficialitat d'aquestes dades
Logo AVAMET blanc
Web allotjada a Sollutia
Llicència de Creative CommonsLa web d'AVAMET i els seus continguts estan subjectes a una llicència de
Reconeixement - No Comercial - Compartir igual
Avís legal - Política de privacitat - Política de cookies
NOVES ESTACIONS: València - l'Olivereta (Soci), Xixona - Carrasqueta/Bugaia (Soci), l'Alcúdia de Crespins/Canals - la Muntanyeta (Soci), Utiel - est (Soci), Xàbia - Cansalades (Soci), Alginet (Soci), Quatretondeta (Ajuntament Soci) Enguera - Benali (Soci/ADENE), la Vall d'Alba - sud (Ajuntament Soci), El Fondó dels Frares (Estació pròpia d'AVAMET nº34) - - -